Time;durP1;ratioP1;P1;durP2;ratioP2;P2;SDS_P1;SDS_P2;PMS_P1;PMS_P2;Temp;Humidity;BMP_temperature;BMP_pressure;BME280_temperature;BME280_humidity;BME280_pressure;Samples;Min_cycle;Max_cycle;Signal;HPM_P1;HPM_P2
2022/06/29 00:00:44;;;;;;;5.33;4.90;;;17.20;99.90;;;;;;5046375;28;20642;-48
2022/06/29 00:03:12;;;;;;;6.93;4.23;;;17.10;99.90;;;;;;5045417;28;20209;-48
2022/06/29 00:05:40;;;;;;;9.20;6.03;;;17.10;99.90;;;;;;5043806;28;20221;-48
2022/06/29 00:08:07;;;;;;;6.03;5.40;;;17.10;99.90;;;;;;5046075;28;20237;-48
2022/06/29 00:10:35;;;;;;;5.47;5.00;;;17.10;99.90;;;;;;5050187;28;20205;-48
2022/06/29 00:13:02;;;;;;;5.50;5.00;;;17.10;99.90;;;;;;5049682;28;20556;-48
2022/06/29 00:15:29;;;;;;;4.27;4.00;;;17.20;99.90;;;;;;5049401;28;20732;-48
2022/06/29 00:17:56;;;;;;;12.27;4.73;;;17.20;99.90;;;;;;5047281;28;20267;-48
2022/06/29 00:20:23;;;;;;;5.53;5.03;;;17.20;99.90;;;;;;5049738;28;20202;-48
2022/06/29 00:22:55;;;;;;;4.40;4.20;;;17.20;99.90;;;;;;5048618;28;20206;-48
2022/06/29 00:25:22;;;;;;;8.23;4.27;;;17.10;99.90;;;;;;5051987;28;20699;-48
2022/06/29 00:27:49;;;;;;;4.97;4.50;;;17.10;99.90;;;;;;5047928;28;20267;-48
2022/06/29 00:30:16;;;;;;;4.83;4.40;;;17.20;99.90;;;;;;5050443;28;20201;-48
2022/06/29 00:32:43;;;;;;;4.50;4.17;;;17.20;99.90;;;;;;5049116;28;20243;-48
2022/06/29 00:35:10;;;;;;;5.20;4.57;;;17.20;99.90;;;;;;5050638;28;20684;-48
2022/06/29 00:37:37;;;;;;;5.20;4.90;;;17.20;99.90;;;;;;5050988;28;20217;-48
2022/06/29 00:40:07;;;;;;;6.20;4.83;;;17.20;99.90;;;;;;5047820;28;20213;-48
2022/06/29 00:42:34;;;;;;;7.87;5.13;;;17.20;99.90;;;;;;5045445;28;20364;-48
2022/06/29 00:45:02;;;;;;;5.23;4.73;;;17.20;99.90;;;;;;5050852;28;20672;-48
2022/06/29 00:47:29;;;;;;;7.40;4.67;;;17.20;99.90;;;;;;5050623;28;20245;-47
2022/06/29 00:49:57;;;;;;;5.47;4.83;;;17.20;99.90;;;;;;5050821;28;20198;-48
2022/06/29 00:52:25;;;;;;;6.53;5.93;;;17.20;99.90;;;;;;5046093;28;20618;-48
2022/06/29 00:54:55;;;;;;;5.67;5.13;;;17.20;99.90;;;;;;5050002;28;20270;-48
2022/06/29 00:57:25;;;;;;;6.50;5.90;;;17.20;99.90;;;;;;5049768;28;20364;-48
2022/06/29 00:59:54;;;;;;;5.47;4.97;;;17.20;99.90;;;;;;5051989;28;20190;-48
2022/06/29 01:02:24;;;;;;;5.13;4.83;;;17.30;99.90;;;;;;5048403;28;20263;-48
2022/06/29 01:04:52;;;;;;;5.40;5.00;;;17.30;99.90;;;;;;5051104;28;20205;-48
2022/06/29 01:07:23;;;;;;;6.33;5.00;;;17.30;99.90;;;;;;5048520;28;20771;-48
2022/06/29 01:09:50;;;;;;;6.10;5.57;;;17.20;99.90;;;;;;5042841;28;20205;-47
2022/06/29 01:12:17;;;;;;;9.50;5.27;;;17.30;99.90;;;;;;5048881;28;20201;-47
2022/06/29 01:14:47;;;;;;;5.10;4.90;;;17.30;99.90;;;;;;5043262;28;20664;-48
2022/06/29 01:17:14;;;;;;;8.03;5.53;;;17.30;99.90;;;;;;5047088;28;20218;-48
2022/06/29 01:19:42;;;;;;;6.20;3.73;;;17.30;99.90;;;;;;5049679;28;20271;-48
2022/06/29 01:22:11;;;;;;;5.20;4.77;;;17.30;99.90;;;;;;5046774;28;20218;-48
2022/06/29 01:24:39;;;;;;;5.93;3.97;;;17.30;99.90;;;;;;5049287;28;20209;-48
2022/06/29 01:27:06;;;;;;;7.47;4.47;;;17.30;99.90;;;;;;5051256;28;20226;-48
2022/06/29 01:29:34;;;;;;;4.53;4.13;;;17.20;99.90;;;;;;5048540;28;20556;-47
2022/06/29 01:32:01;;;;;;;4.57;4.20;;;17.30;99.90;;;;;;5049119;28;20194;-48
2022/06/29 01:34:29;;;;;;;3.77;3.53;;;17.30;99.90;;;;;;5049486;28;20721;-48
2022/06/29 01:36:56;;;;;;;7.47;3.73;;;17.20;99.90;;;;;;5050330;28;20260;-48
2022/06/29 01:39:25;;;;;;;3.53;3.23;;;17.20;99.90;;;;;;5051330;28;20275;-48
2022/06/29 01:41:52;;;;;;;4.20;3.93;;;17.20;99.90;;;;;;5050715;28;20260;-48
2022/06/29 01:44:20;;;;;;;4.57;3.50;;;17.20;99.90;;;;;;5047811;28;20255;-48
2022/06/29 01:46:47;;;;;;;6.50;3.77;;;17.20;99.90;;;;;;5052814;28;20233;-48
2022/06/29 01:49:14;;;;;;;6.40;3.93;;;17.10;99.90;;;;;;5053945;28;20718;-48
2022/06/29 01:51:41;;;;;;;6.93;4.73;;;17.20;99.90;;;;;;5052661;28;20667;-47
2022/06/29 01:54:08;;;;;;;5.77;3.53;;;17.10;99.90;;;;;;5052846;28;20660;-48
2022/06/29 01:56:37;;;;;;;4.70;4.30;;;17.10;99.90;;;;;;5048717;28;20245;-48
2022/06/29 01:59:04;;;;;;;4.37;3.97;;;17.10;99.90;;;;;;5054121;28;20198;-48
2022/06/29 02:01:31;;;;;;;5.17;4.73;;;17.00;99.90;;;;;;5054531;28;20197;-47
2022/06/29 02:03:58;;;;;;;8.03;4.30;;;17.00;99.90;;;;;;5051992;28;20285;-48
2022/06/29 02:06:25;;;;;;;4.53;4.20;;;17.00;99.90;;;;;;5048822;28;20251;-48
2022/06/29 02:08:52;;;;;;;4.20;3.80;;;16.90;99.90;;;;;;5053217;28;20200;-48
2022/06/29 02:11:21;;;;;;;4.87;4.47;;;16.90;99.90;;;;;;5052733;28;20722;-48
2022/06/29 02:13:49;;;;;;;4.23;3.93;;;16.90;99.90;;;;;;5052692;28;20723;-48
2022/06/29 02:16:16;;;;;;;5.93;4.10;;;16.90;99.90;;;;;;5054812;28;20248;-48
2022/06/29 02:18:43;;;;;;;7.00;4.83;;;16.90;99.90;;;;;;5054821;28;20222;-48
2022/06/29 02:21:10;;;;;;;4.23;3.93;;;17.00;99.90;;;;;;5051449;28;20225;-48
2022/06/29 02:23:38;;;;;;;6.40;3.77;;;17.00;99.90;;;;;;5051962;28;20254;-48
2022/06/29 02:26:05;;;;;;;4.93;3.90;;;17.00;99.90;;;;;;5052649;28;20283;-48
2022/06/29 02:28:32;;;;;;;3.67;3.47;;;17.00;99.90;;;;;;5054585;28;20222;-48
2022/06/29 02:36:29;;;;;;;4.67;3.90;;;16.90;99.90;;;;;;5053211;28;20232;-47
2022/06/29 02:38:55;;;;;;;4.20;3.90;;;16.90;99.90;;;;;;5050695;28;20625;-48
2022/06/29 02:41:22;;;;;;;4.20;3.80;;;16.90;99.90;;;;;;5049138;28;20263;-48
2022/06/29 02:43:49;;;;;;;5.90;4.33;;;16.90;99.90;;;;;;5052264;28;20205;-48
2022/06/29 02:46:18;;;;;;;6.17;3.03;;;16.90;99.90;;;;;;5052847;28;20732;-48
2022/06/29 02:48:45;;;;;;;4.43;4.10;;;16.90;99.90;;;;;;5052210;28;20229;-48
2022/06/29 02:51:12;;;;;;;5.27;4.53;;;16.90;99.90;;;;;;5052550;28;20284;-48
2022/06/29 02:53:39;;;;;;;6.87;4.97;;;16.90;99.90;;;;;;5050182;28;20287;-48
2022/06/29 02:56:06;;;;;;;5.17;4.57;;;16.90;99.90;;;;;;5052451;28;20202;-48
2022/06/29 02:58:33;;;;;;;6.37;4.30;;;16.90;99.90;;;;;;5052761;28;20271;-48
2022/06/29 03:01:00;;;;;;;5.20;4.30;;;16.90;99.90;;;;;;5051920;28;20206;-48
2022/06/29 03:03:29;;;;;;;4.63;4.33;;;16.90;99.90;;;;;;5051264;28;20205;-48
2022/06/29 03:05:56;;;;;;;5.13;3.93;;;16.90;99.90;;;;;;5053884;28;20255;-47
2022/06/29 03:08:23;;;;;;;4.33;4.03;;;17.00;99.90;;;;;;5053977;28;20276;-48
2022/06/29 03:10:50;;;;;;;5.50;4.60;;;17.00;99.90;;;;;;5053932;28;20276;-48
2022/06/29 03:13:17;;;;;;;4.20;3.90;;;17.00;99.90;;;;;;5049262;28;20288;-48
2022/06/29 03:15:44;;;;;;;4.43;4.13;;;17.00;99.90;;;;;;5053415;28;20202;-48
2022/06/29 03:18:11;;;;;;;7.60;4.83;;;17.00;99.90;;;;;;5033944;28;20233;-48
2022/06/29 03:20:39;;;;;;;5.53;4.37;;;17.00;99.90;;;;;;5049022;28;20201;-47
2022/06/29 03:23:06;;;;;;;8.17;4.83;;;17.10;99.90;;;;;;5050225;28;20613;-48
2022/06/29 03:25:33;;;;;;;7.17;4.70;;;17.10;99.90;;;;;;5053365;28;20614;-48
2022/06/29 03:28:00;;;;;;;5.77;4.50;;;17.10;99.90;;;;;;5053486;28;20214;-48
2022/06/29 03:30:27;;;;;;;6.03;5.00;;;17.10;99.90;;;;;;5052255;28;20262;-48
2022/06/29 03:32:54;;;;;;;4.70;4.40;;;17.10;99.90;;;;;;5047800;28;20206;-48
2022/06/29 03:35:21;;;;;;;4.57;4.20;;;17.10;99.90;;;;;;5051672;28;20205;-48
2022/06/29 03:37:50;;;;;;;7.63;5.47;;;17.10;99.90;;;;;;5053232;28;20232;-48
2022/06/29 03:40:18;;;;;;;4.97;4.60;;;17.10;99.90;;;;;;5052354;28;20208;-48
2022/06/29 03:42:45;;;;;;;6.07;5.43;;;17.10;99.90;;;;;;5044873;28;20230;-48
2022/06/29 03:45:12;;;;;;;5.73;5.33;;;17.10;99.90;;;;;;5043435;28;20684;-47
2022/06/29 03:47:40;;;;;;;6.37;5.00;;;17.00;99.90;;;;;;5048670;28;20309;-48
2022/06/29 03:50:08;;;;;;;5.23;4.20;;;17.10;99.90;;;;;;5034799;28;20679;-48
2022/06/29 03:52:35;;;;;;;4.13;3.90;;;17.00;99.90;;;;;;5032818;28;20202;-48
2022/06/29 03:55:04;;;;;;;6.60;4.73;;;17.10;99.90;;;;;;5049403;28;20297;-47
2022/06/29 03:57:31;;;;;;;5.47;5.00;;;17.20;99.90;;;;;;5039325;28;20272;-48
2022/06/29 03:59:58;;;;;;;5.00;4.43;;;17.20;99.90;;;;;;5033861;28;20226;-48
2022/06/29 04:02:25;;;;;;;6.73;6.03;;;17.10;99.90;;;;;;5031795;28;20257;-48
2022/06/29 04:04:52;;;;;;;4.87;4.53;;;17.10;99.90;;;;;;5040928;28;20198;-47
2022/06/29 04:07:19;;;;;;;5.43;4.93;;;17.20;99.90;;;;;;5049467;28;20699;-48
2022/06/29 04:09:46;;;;;;;5.50;5.10;;;17.10;99.90;;;;;;5063490;22;20276;-51
2022/06/29 04:12:15;;;;;;;11.33;5.37;;;17.10;99.90;;;;;;5028801;28;20202;-51
2022/06/29 04:14:42;;;;;;;5.30;4.80;;;17.20;99.90;;;;;;5026721;28;20276;-51
2022/06/29 04:17:09;;;;;;;4.37;3.93;;;17.20;99.90;;;;;;5031798;28;20253;-50
2022/06/29 04:19:36;;;;;;;6.30;4.63;;;17.30;99.90;;;;;;5029624;28;20226;-51
2022/06/29 04:22:03;;;;;;;5.60;4.20;;;17.30;99.90;;;;;;5029929;28;20311;-51
2022/06/29 04:24:30;;;;;;;4.80;4.40;;;17.40;99.90;;;;;;5031357;28;20411;-51
2022/06/29 04:26:57;;;;;;;4.53;3.97;;;17.50;99.90;;;;;;5032159;28;20623;-51
2022/06/29 04:29:26;;;;;;;5.00;4.27;;;17.50;99.90;;;;;;5028912;28;20222;-51
2022/06/29 04:31:53;;;;;;;4.83;4.20;;;17.60;99.90;;;;;;5031367;28;20206;-51
2022/06/29 04:34:20;;;;;;;4.47;4.17;;;17.50;99.90;;;;;;5023235;28;20207;-53
2022/06/29 04:36:47;;;;;;;6.77;4.37;;;17.60;99.90;;;;;;5020716;28;20665;-51
2022/06/29 04:39:14;;;;;;;6.13;4.63;;;17.60;99.90;;;;;;5022222;28;20222;-50
2022/06/29 04:41:41;;;;;;;4.03;3.73;;;17.60;99.90;;;;;;5023990;28;20195;-51
2022/06/29 04:44:08;;;;;;;3.73;3.43;;;17.70;99.90;;;;;;5024401;28;20295;-51
2022/06/29 04:46:36;;;;;;;5.33;4.70;;;17.70;99.90;;;;;;5030606;28;20198;-50
2022/06/29 04:49:04;;;;;;;4.33;4.03;;;17.80;99.90;;;;;;5029421;28;20260;-51
2022/06/29 04:51:33;;;;;;;4.97;4.43;;;17.80;99.90;;;;;;5025609;28;20222;-51
2022/06/29 04:54:01;;;;;;;9.27;4.47;;;17.80;99.90;;;;;;5026522;28;20199;-51
2022/06/29 04:56:29;;;;;;;4.47;4.27;;;17.90;99.90;;;;;;5025549;28;20203;-51
2022/06/29 04:58:57;;;;;;;4.50;3.67;;;18.00;99.90;;;;;;5015274;28;20222;-51
2022/06/29 05:01:26;;;;;;;5.20;4.63;;;18.10;99.90;;;;;;5028835;28;20648;-51
2022/06/29 05:03:56;;;;;;;7.23;4.27;;;18.20;99.90;;;;;;5024288;28;20214;-50
2022/06/29 05:06:23;;;;;;;5.23;4.27;;;18.20;99.90;;;;;;5026825;28;20620;-50
2022/06/29 05:08:51;;;;;;;4.47;4.23;;;18.20;99.90;;;;;;5034587;28;20304;-50
2022/06/29 05:11:18;;;;;;;5.43;4.43;;;18.20;99.90;;;;;;5031342;28;20260;-50
2022/06/29 05:13:45;;;;;;;3.97;3.47;;;18.20;99.90;;;;;;5027959;28;20199;-51
2022/06/29 05:16:12;;;;;;;7.93;4.63;;;18.30;99.90;;;;;;5022777;28;20202;-53
2022/06/29 05:18:39;;;;;;;5.13;4.73;;;18.40;99.90;;;;;;5031100;28;20260;-51
2022/06/29 05:21:09;;;;;;;5.50;5.00;;;18.30;99.90;;;;;;5026728;28;20314;-50
2022/06/29 05:23:36;;;;;;;4.40;4.17;;;18.30;99.90;;;;;;5019583;28;20664;-51
2022/06/29 05:26:03;;;;;;;6.73;5.37;;;18.20;99.90;;;;;;5031113;28;20252;-51
2022/06/29 05:28:30;;;;;;;4.73;4.43;;;18.10;99.90;;;;;;5029004;28;20695;-52
2022/06/29 05:30:57;;;;;;;5.57;4.30;;;18.10;99.90;;;;;;5021417;28;20223;-51
2022/06/29 05:33:24;;;;;;;7.77;4.67;;;18.10;99.90;;;;;;5017250;28;20847;-51
2022/06/29 05:35:51;;;;;;;4.40;4.10;;;18.20;99.90;;;;;;5034623;28;20194;-51
2022/06/29 05:38:19;;;;;;;5.63;5.17;;;18.30;99.90;;;;;;5030339;28;20623;-51
2022/06/29 05:40:46;;;;;;;4.63;4.33;;;18.40;99.90;;;;;;5028660;28;20226;-50
2022/06/29 05:43:13;;;;;;;11.93;5.30;;;18.40;99.90;;;;;;5027684;28;20206;-51
2022/06/29 05:45:40;;;;;;;7.33;4.67;;;18.50;99.90;;;;;;5031023;28;20198;-51
2022/06/29 05:48:08;;;;;;;4.60;4.30;;;18.60;99.90;;;;;;5022364;28;20252;-51
2022/06/29 05:50:35;;;;;;;11.90;4.43;;;18.50;99.90;;;;;;5025852;28;20226;-51
2022/06/29 05:53:02;;;;;;;5.83;4.60;;;18.60;99.90;;;;;;5027580;28;20198;-51
2022/06/29 05:55:31;;;;;;;5.57;4.47;;;18.70;99.90;;;;;;5032635;28;20197;-51
2022/06/29 05:57:58;;;;;;;4.93;4.13;;;18.70;99.90;;;;;;5028900;28;20218;-51
2022/06/29 06:00:25;;;;;;;6.87;3.47;;;18.80;99.90;;;;;;5029704;28;20269;-51
2022/06/29 06:02:52;;;;;;;4.53;4.30;;;18.90;99.90;;;;;;5029503;28;20300;-51
2022/06/29 06:05:20;;;;;;;4.23;3.80;;;19.00;99.90;;;;;;5032125;28;20265;-51
2022/06/29 06:07:46;;;;;;;5.67;4.47;;;19.10;99.90;;;;;;5034997;28;20283;-51
2022/06/29 06:10:13;;;;;;;6.57;3.70;;;19.30;99.90;;;;;;5022915;28;20284;-51
2022/06/29 06:12:42;;;;;;;4.40;4.00;;;19.50;99.90;;;;;;5029575;28;20210;-51
2022/06/29 06:15:10;;;;;;;4.33;4.03;;;19.60;99.90;;;;;;5032335;28;20240;-50
2022/06/29 06:17:37;;;;;;;3.43;3.27;;;19.70;99.90;;;;;;5035304;28;20265;-51
2022/06/29 06:20:04;;;;;;;5.97;3.67;;;19.70;99.90;;;;;;5031920;28;20223;-51
2022/06/29 06:22:31;;;;;;;3.53;3.23;;;19.80;99.90;;;;;;5038443;28;20271;-51
2022/06/29 06:24:59;;;;;;;5.60;4.60;;;19.80;99.90;;;;;;5031836;28;20260;-51
2022/06/29 06:27:26;;;;;;;7.63;5.07;;;19.90;99.90;;;;;;5034675;28;20281;-51
2022/06/29 06:29:54;;;;;;;4.03;3.63;;;19.80;99.90;;;;;;5026567;28;20223;-51
2022/06/29 06:32:21;;;;;;;4.63;4.33;;;19.80;99.90;;;;;;5033017;28;20198;-51
2022/06/29 06:34:48;;;;;;;5.90;3.67;;;19.90;99.90;;;;;;5028663;28;20194;-51
2022/06/29 06:37:16;;;;;;;4.20;3.90;;;19.90;99.90;;;;;;5028251;28;20199;-50
2022/06/29 06:42:26;;;;;;;11.53;4.77;;;20.30;99.90;;;;;;5024816;28;21089;-51
2022/06/29 06:44:55;;;;;;;7.30;4.83;;;20.50;99.90;;;;;;5033357;28;20203;-53
2022/06/29 06:47:22;;;;;;;6.77;5.67;;;20.60;99.90;;;;;;5034494;28;20643;-51
2022/06/29 06:49:49;;;;;;;6.57;5.50;;;20.70;99.90;;;;;;5035485;28;20280;-51
2022/06/29 06:52:17;;;;;;;4.43;4.03;;;20.80;99.90;;;;;;5034459;28;20198;-52
2022/06/29 06:54:45;;;;;;;4.57;4.00;;;20.80;99.90;;;;;;5032308;28;20209;-52
2022/06/29 06:57:12;;;;;;;4.83;4.43;;;20.80;99.90;;;;;;5031720;28;20237;-51
2022/06/29 06:59:39;;;;;;;4.47;4.23;;;21.00;99.90;;;;;;5014496;28;20215;-51
2022/06/29 07:02:07;;;;;;;4.87;4.37;;;21.10;99.90;;;;;;5012088;28;20274;-51
2022/06/29 07:04:35;;;;;;;5.00;3.87;;;21.00;99.90;;;;;;5024369;28;20256;-51
2022/06/29 07:07:03;;;;;;;4.53;4.27;;;21.10;99.90;;;;;;5026855;28;20198;-51
2022/06/29 07:09:30;;;;;;;4.87;4.40;;;21.20;99.90;;;;;;5027138;28;20311;-51
2022/06/29 07:11:57;;;;;;;5.67;4.53;;;21.30;99.90;;;;;;5030787;28;20198;-51
2022/06/29 07:14:24;;;;;;;4.20;3.90;;;21.30;99.90;;;;;;5030237;28;20277;-51
2022/06/29 07:16:51;;;;;;;3.90;3.60;;;21.30;99.90;;;;;;5012245;28;20199;-51
2022/06/29 07:19:19;;;;;;;4.03;3.67;;;21.40;99.90;;;;;;5012460;28;20274;-52
2022/06/29 07:21:46;;;;;;;6.10;4.87;;;21.60;99.90;;;;;;5012236;28;20199;-51
2022/06/29 07:24:13;;;;;;;5.33;4.73;;;21.70;99.90;;;;;;5021073;28;20277;-52
2022/06/29 07:26:40;;;;;;;4.97;4.00;;;21.80;99.90;;;;;;5023645;28;20680;-52
2022/06/29 07:29:07;;;;;;;4.37;3.57;;;21.90;99.90;;;;;;5027727;28;20277;-52
2022/06/29 07:31:34;;;;;;;5.53;3.87;;;21.90;99.90;;;;;;5031296;28;20210;-52
2022/06/29 07:34:01;;;;;;;4.40;4.20;;;21.90;99.90;;;;;;5031943;28;20248;-52
2022/06/29 07:36:30;;;;;;;8.03;3.63;;;21.70;99.90;;;;;;5031678;28;20201;-51
2022/06/29 07:38:57;;;;;;;4.93;4.53;;;21.60;99.90;;;;;;5031448;28;20245;-53
2022/06/29 07:41:24;;;;;;;3.97;3.77;;;21.60;99.90;;;;;;5025194;28;20199;-53
2022/06/29 07:43:51;;;;;;;3.60;3.40;;;21.50;99.90;;;;;;5027341;28;20198;-52
2022/06/29 07:46:18;;;;;;;3.90;3.70;;;21.60;99.90;;;;;;5030484;28;20198;-52
2022/06/29 07:48:45;;;;;;;5.00;3.83;;;21.60;99.90;;;;;;5023057;28;20556;-53
2022/06/29 07:51:12;;;;;;;4.77;4.20;;;21.60;99.90;;;;;;5030159;28;20272;-52
2022/06/29 07:53:40;;;;;;;4.27;4.07;;;21.60;99.90;;;;;;5031136;28;20336;-53
2022/06/29 07:56:07;;;;;;;4.13;3.83;;;21.70;99.90;;;;;;5032442;28;20206;-52
2022/06/29 07:58:34;;;;;;;4.87;4.03;;;21.70;99.90;;;;;;5032359;28;20254;-52
2022/06/29 08:01:02;;;;;;;3.77;3.53;;;21.80;99.90;;;;;;5039234;28;20276;-52
2022/06/29 08:03:29;;;;;;;4.30;3.70;;;21.90;99.90;;;;;;5045929;28;20256;-52
2022/06/29 08:05:56;;;;;;;3.70;2.73;;;22.00;99.90;;;;;;5025392;28;20202;-53
2022/06/29 08:08:22;;;;;;;5.37;3.90;;;22.10;99.90;;;;;;5011640;28;20195;-52
2022/06/29 08:10:51;;;;;;;7.20;3.77;;;22.20;99.90;;;;;;5011536;28;20557;-53
2022/06/29 08:13:19;;;;;;;4.73;4.50;;;22.40;99.90;;;;;;5010720;28;20213;-52
2022/06/29 08:15:46;;;;;;;4.37;3.97;;;22.40;99.90;;;;;;5011489;28;20203;-53
2022/06/29 08:18:13;;;;;;;7.20;3.80;;;22.50;99.90;;;;;;5011665;28;20273;-52
2022/06/29 08:20:40;;;;;;;3.33;2.77;;;22.60;99.90;;;;;;5011327;28;20665;-53
2022/06/29 08:23:08;;;;;;;4.13;3.80;;;22.80;99.90;;;;;;5022344;28;20245;-52
2022/06/29 08:25:35;;;;;;;5.17;4.07;;;22.90;99.90;;;;;;5034502;28;20281;-52
2022/06/29 08:28:05;;;;;;;3.70;3.40;;;23.00;99.90;;;;;;5030230;28;20234;-53
2022/06/29 08:30:33;;;;;;;3.93;3.60;;;23.20;99.90;;;;;;5029416;28;20321;-53
2022/06/29 08:33:00;;;;;;;4.07;3.77;;;23.30;99.90;;;;;;5029122;28;20205;-52
2022/06/29 08:35:29;;;;;;;4.23;3.93;;;23.60;99.90;;;;;;5029547;28;20202;-53
2022/06/29 08:37:56;;;;;;;3.80;3.63;;;23.80;99.90;;;;;;5029364;28;20201;-52
2022/06/29 08:40:23;;;;;;;8.63;4.53;;;24.50;99.90;;;;;;5030861;28;20229;-52
2022/06/29 08:42:51;;;;;;;4.17;3.97;;;24.90;99.90;;;;;;5031602;28;20286;-52
2022/06/29 08:45:21;;;;;;;4.43;4.03;;;25.00;99.90;;;;;;5031495;28;20256;-53
2022/06/29 08:47:48;;;;;;;7.18;4.53;;;25.30;99.90;;;;;;5030336;28;20245;-53
2022/06/29 08:50:15;;;;;;;4.20;3.13;;;26.00;99.90;;;;;;5032024;28;20222;-54
2022/06/29 08:52:44;;;;;;;4.15;3.72;;;26.60;99.90;;;;;;5030941;28;20198;-53
2022/06/29 08:55:12;;;;;;;4.25;3.95;;;27.10;99.90;;;;;;5029027;28;20201;-53
2022/06/29 08:57:39;;;;;;;3.13;2.97;;;27.40;99.90;;;;;;5030675;28;20263;-53
2022/06/29 09:00:09;;;;;;;3.67;3.33;;;28.10;99.90;;;;;;5041657;28;20221;-53
2022/06/29 09:02:38;;;;;;;5.13;3.95;;;28.30;99.90;;;;;;5041502;28;20611;-53
2022/06/29 09:05:06;;;;;;;5.45;4.97;;;28.70;99.90;;;;;;5041053;28;20237;-53
2022/06/29 09:07:33;;;;;;;3.50;3.25;;;28.90;99.90;;;;;;5039528;28;20249;-53
2022/06/29 09:10:06;;;;;;;4.05;3.45;;;29.30;99.90;;;;;;5039661;28;20245;-53
2022/06/29 09:12:33;;;;;;;3.65;3.45;;;29.00;99.90;;;;;;5038495;28;20210;-53
2022/06/29 09:15:01;;;;;;;4.40;3.70;;;28.90;99.90;;;;;;5044723;28;20657;-53
2022/06/29 09:17:32;;;;;;;6.65;3.63;;;28.90;99.90;;;;;;5028598;28;20264;-53
2022/06/29 09:20:01;;;;;;;3.65;3.53;;;29.10;99.90;;;;;;5029666;28;20700;-54
2022/06/29 09:22:29;;;;;;;3.22;2.92;;;29.20;99.90;;;;;;5029642;28;20198;-53
2022/06/29 09:24:56;;;;;;;2.90;2.80;;;30.20;99.90;;;;;;5030667;28;20198;-54
2022/06/29 09:27:25;;;;;;;5.85;2.50;;;30.60;99.90;;;;;;5026786;28;20198;-54
2022/06/29 09:29:52;;;;;;;3.17;2.88;;;31.00;99.90;;;;;;5029978;28;20300;-53
2022/06/29 09:32:19;;;;;;;3.30;3.13;;;31.80;99.90;;;;;;5032776;28;20214;-53
2022/06/29 09:34:48;;;;;;;3.53;3.25;;;31.30;99.90;;;;;;5030226;28;20234;-54
2022/06/29 09:37:19;;;;;;;3.28;3.03;;;31.90;99.90;;;;;;5021278;28;20211;-53
2022/06/29 09:39:47;;;;;;;3.10;2.80;;;31.70;99.90;;;;;;5024489;28;20268;-54
2022/06/29 09:42:16;;;;;;;2.83;2.63;;;31.80;99.90;;;;;;5030630;28;20460;-54
2022/06/29 09:44:44;;;;;;;2.97;2.85;;;31.90;99.90;;;;;;5042043;28;20652;-53
2022/06/29 09:47:16;;;;;;;2.65;1.83;;;31.50;99.90;;;;;;5046372;28;20202;-53
2022/06/29 09:49:44;;;;;;;2.50;2.40;;;30.70;99.90;;;;;;5038058;28;20771;-54
2022/06/29 09:52:12;;;;;;;3.30;2.50;;;30.10;99.90;;;;;;5034995;28;20629;-54
2022/06/29 09:54:46;;;;;;;2.00;2.00;;;29.70;99.90;;;;;;5042173;28;20271;-54
2022/06/29 09:57:15;;;;;;;3.05;2.85;;;29.80;99.90;;;;;;5043832;28;20210;-54
2022/06/29 10:02:38;;;;;;;3.55;2.78;;;28.80;99.90;;;;;;5029950;28;20201;-54
2022/06/29 10:05:11;;;;;;;5.10;2.50;;;28.20;99.90;;;;;;5029814;28;20243;-54
2022/06/29 10:07:39;;;;;;;2.25;2.15;;;28.50;99.90;;;;;;5034489;28;20202;-54
2022/06/29 10:10:11;;;;;;;2.92;2.72;;;29.30;99.90;;;;;;5071660;22;20637;-49
2022/06/29 10:16:22;;;;;;;2.55;2.45;;;30.40;99.90;;;;;;5011999;28;20676;-49
2022/06/29 10:19:00;;;;;;;2.95;2.75;;;30.60;99.90;;;;;;5011910;28;20222;-49
2022/06/29 10:21:29;;;;;;;5.80;2.35;;;30.00;99.90;;;;;;5041961;28;20279;-48
2022/06/29 10:23:58;;;;;;;2.58;2.22;;;29.50;99.90;;;;;;5056808;28;20198;-49
2022/06/29 10:26:45;;;;;;;2.35;2.17;;;30.20;99.90;;;;;;5043835;28;20284;-49
2022/06/29 10:29:32;;;;;;;2.90;2.80;;;31.00;99.90;;;;;;5043480;28;20191;-49
2022/06/29 10:32:17;;;;;;;4.00;3.65;;;30.90;99.90;;;;;;5033285;28;20730;-49
2022/06/29 10:37:31;;;;;;;2.97;2.88;;;29.80;99.90;;;;;;5043854;28;20336;-49
2022/06/29 10:40:04;;;;;;;5.65;2.67;;;29.10;99.90;;;;;;5043488;28;20257;-50
2022/06/29 10:45:33;;;;;;;4.90;3.72;;;29.80;99.90;;;;;;5034342;28;20776;-49
2022/06/29 10:48:30;;;;;;;3.88;2.80;;;29.70;99.90;;;;;;5053621;28;20229;-50
2022/06/29 10:50:58;;;;;;;4.57;3.17;;;29.60;99.90;;;;;;5033334;28;20245;-50
2022/06/29 10:53:25;;;;;;;3.65;3.10;;;29.90;99.90;;;;;;5032679;28;20194;-51
2022/06/29 10:55:55;;;;;;;3.72;2.50;;;30.00;99.90;;;;;;5039330;28;20198;-50
2022/06/29 10:58:24;;;;;;;3.50;3.25;;;29.50;99.90;;;;;;5049663;28;20674;-50
2022/06/29 11:00:53;;;;;;;6.43;2.55;;;29.80;99.90;;;;;;5033093;28;20246;-50
2022/06/29 11:03:22;;;;;;;3.80;1.90;;;29.80;99.90;;;;;;5032269;28;20643;-50
2022/06/29 11:15:39;;;;;;;2.90;2.72;;;29.80;99.90;;;;;;5043174;28;20695;-50
2022/06/29 11:16:57;;;;;;;2.35;2.15;;;29.80;99.90;;;;;;5040924;28;20208;-50
2022/06/29 11:19:33;;;;;;;2.35;1.75;;;29.40;99.90;;;;;;5062958;28;20225;-50
2022/06/29 11:22:15;;;;;;;2.30;2.20;;;29.40;99.90;;;;;;5052952;28;20288;-50
2022/06/29 11:24:57;;;;;;;2.67;2.58;;;29.00;99.90;;;;;;5051635;28;20205;-50
2022/06/29 11:27:35;;;;;;;2.83;2.38;;;29.00;99.90;;;;;;5054033;28;20206;-50
2022/06/29 11:30:07;;;;;;;3.92;2.80;;;28.90;99.90;;;;;;5063909;28;20213;-50
2022/06/29 11:32:37;;;;;;;2.67;2.58;;;28.80;99.90;;;;;;5072594;28;20201;-50
2022/06/29 11:35:05;;;;;;;2.20;2.10;;;28.30;99.90;;;;;;5072990;28;20203;-50
2022/06/29 11:37:32;;;;;;;2.15;1.95;;;27.90;99.90;;;;;;5058242;28;20201;-50
2022/06/29 11:39:59;;;;;;;2.42;2.22;;;27.50;99.90;;;;;;5063364;28;20216;-50
2022/06/29 11:45:17;;;;;;;2.20;2.03;;;27.30;99.90;;;;;;5073340;28;20583;-50
2022/06/29 11:47:51;;;;;;;2.42;2.28;;;27.40;99.90;;;;;;5050857;28;20267;-50
2022/06/29 11:50:19;;;;;;;3.47;3.28;;;27.60;99.90;;;;;;5053004;28;20677;-50
2022/06/29 11:52:47;;;;;;;2.78;2.58;;;27.50;99.90;;;;;;5052541;28;20237;-49
2022/06/29 11:55:14;;;;;;;2.92;2.90;;;27.50;99.90;;;;;;5053123;28;20252;-50
2022/06/29 11:57:41;;;;;;;5.65;2.63;;;27.40;99.90;;;;;;5057510;28;20206;-50
2022/06/29 12:00:11;;;;;;;3.28;2.25;;;27.40;99.90;;;;;;5064157;28;20340;-51
2022/06/29 12:02:40;;;;;;;3.45;2.58;;;27.50;99.90;;;;;;5072540;28;20203;-51
2022/06/29 12:05:07;;;;;;;2.75;2.53;;;27.40;99.90;;;;;;5073002;28;20232;-50
2022/06/29 12:07:35;;;;;;;2.38;2.28;;;27.50;99.90;;;;;;5059565;28;20247;-50
2022/06/29 12:10:02;;;;;;;3.00;2.30;;;27.40;99.90;;;;;;5063023;28;20909;-50
2022/06/29 12:12:29;;;;;;;3.33;2.40;;;27.40;99.90;;;;;;5072019;28;20633;-50
2022/06/29 12:14:56;;;;;;;2.85;2.35;;;27.50;99.90;;;;;;5072832;28;20207;-50
2022/06/29 12:17:23;;;;;;;3.10;2.92;;;27.40;99.90;;;;;;5053535;28;20206;-50
2022/06/29 12:19:51;;;;;;;3.33;2.30;;;27.10;99.90;;;;;;5061432;28;20225;-50
2022/06/29 12:22:19;;;;;;;3.08;2.13;;;26.80;99.90;;;;;;5071766;28;20209;-50
2022/06/29 12:24:46;;;;;;;2.80;2.60;;;26.60;99.90;;;;;;5066119;28;20213;-50
2022/06/29 12:27:13;;;;;;;3.05;2.55;;;26.60;99.90;;;;;;5056388;28;20243;-51
2022/06/29 12:29:40;;;;;;;2.78;2.58;;;26.70;99.90;;;;;;5059346;28;20225;-50
2022/06/29 12:32:07;;;;;;;2.55;2.45;;;26.70;99.90;;;;;;5071665;28;20204;-50
2022/06/29 12:34:34;;;;;;;3.28;3.13;;;26.60;99.90;;;;;;5061899;28;20209;-51
2022/06/29 12:37:04;;;;;;;2.38;2.20;;;26.50;99.90;;;;;;5055290;28;20198;-50
2022/06/29 12:39:31;;;;;;;2.28;2.17;;;26.60;99.90;;;;;;5058427;28;20221;-50
2022/06/29 12:41:58;;;;;;;3.47;2.38;;;26.80;99.90;;;;;;5071446;28;20296;-50
2022/06/29 12:44:26;;;;;;;2.63;2.53;;;27.00;99.90;;;;;;5072117;28;20242;-50
2022/06/29 12:46:53;;;;;;;3.03;2.88;;;27.30;99.90;;;;;;5062016;28;20256;-50
2022/06/29 12:49:20;;;;;;;4.45;2.95;;;26.80;99.90;;;;;;5051985;28;20198;-51
2022/06/29 12:51:48;;;;;;;2.80;2.70;;;27.00;99.90;;;;;;5051089;28;20264;-51
2022/06/29 12:54:17;;;;;;;2.67;2.55;;;27.10;99.90;;;;;;5052104;28;20197;-51
2022/06/29 12:56:44;;;;;;;9.80;3.30;;;27.30;99.90;;;;;;5054388;28;20229;-51
2022/06/29 12:59:11;;;;;;;3.35;3.13;;;27.40;99.90;;;;;;5054976;28;20825;-50
2022/06/29 13:01:38;;;;;;;2.92;2.83;;;27.40;99.90;;;;;;5055257;28;20221;-50
2022/06/29 13:04:05;;;;;;;2.72;2.58;;;27.30;99.90;;;;;;5051847;28;20232;-50
2022/06/29 13:06:32;;;;;;;6.07;3.03;;;27.00;99.90;;;;;;5050817;28;20682;-50
2022/06/29 13:08:59;;;;;;;3.17;2.97;;;27.10;99.90;;;;;;5064577;28;20229;-50
2022/06/29 13:11:28;;;;;;;3.08;2.80;;;26.90;99.90;;;;;;5056557;28;20286;-51
2022/06/29 13:13:54;;;;;;;3.20;2.85;;;27.00;99.90;;;;;;5053675;28;20198;-50
2022/06/29 13:16:21;;;;;;;2.40;2.30;;;26.90;99.90;;;;;;5054935;28;20810;-50
2022/06/29 13:18:48;;;;;;;3.50;2.85;;;26.90;99.90;;;;;;5063357;28;20274;-51
2022/06/29 13:21:15;;;;;;;5.13;2.35;;;27.00;99.90;;;;;;5065719;28;20277;-51